createdAt,value
2018-06-13T00:00:42.867Z,13.88
2018-06-13T00:01:52.018Z,13.89
2018-06-13T00:03:00.883Z,13.99
2018-06-13T00:04:09.737Z,13.92
2018-06-13T00:05:18.874Z,13.87
2018-06-13T00:06:27.734Z,13.78
2018-06-13T00:07:36.593Z,13.81
2018-06-13T00:08:45.452Z,14.04
2018-06-13T00:09:54.308Z,13.88
2018-06-13T00:11:03.518Z,13.75
2018-06-13T00:12:12.380Z,13.64
2018-06-13T00:13:21.241Z,13.63
2018-06-13T00:14:30.101Z,13.55
2018-06-13T00:15:39.232Z,13.57
2018-06-13T00:16:48.193Z,13.7
2018-06-13T00:17:57.054Z,13.78
2018-06-13T00:19:05.912Z,14.02
2018-06-13T00:20:14.773Z,13.87
2018-06-13T00:21:23.631Z,13.67
2018-06-13T00:22:32.491Z,13.81
2018-06-13T00:23:41.347Z,13.78
2018-06-13T00:24:50.207Z,13.79
2018-06-13T00:25:59.348Z,13.77
2018-06-13T00:27:08.207Z,13.71
2018-06-13T00:28:17.515Z,13.78
2018-06-13T00:29:26.375Z,13.75
2018-06-13T00:30:35.234Z,13.75
2018-06-13T00:31:44.092Z,13.75
2018-06-13T00:32:52.950Z,13.78
2018-06-13T00:34:01.914Z,13.79
2018-06-13T00:35:10.773Z,13.63
2018-06-13T00:36:19.639Z,13.7
2018-06-13T00:37:28.777Z,13.79
2018-06-13T00:38:37.636Z,13.73
2018-06-13T00:39:46.493Z,13.73
2018-06-13T00:40:55.629Z,13.79
2018-06-13T00:42:04.484Z,13.81
2018-06-13T00:43:13.623Z,13.96
2018-06-13T00:44:22.483Z,14.04
2018-06-13T00:45:31.722Z,13.88
2018-06-13T00:46:40.955Z,13.82
2018-06-13T00:47:49.814Z,13.64
2018-06-13T00:48:59.220Z,13.82
2018-06-13T00:50:08.355Z,13.81
2018-06-13T00:51:17.693Z,13.71
2018-06-13T00:52:26.555Z,13.64
2018-06-13T00:53:35.419Z,13.55
2018-06-13T00:54:44.279Z,13.55
2018-06-13T00:55:53.138Z,13.66
2018-06-13T00:57:02.423Z,13.64
2018-06-13T00:58:11.562Z,13.52
2018-06-13T00:59:20.746Z,13.62
2018-06-13T01:00:29.883Z,13.67
2018-06-13T01:01:38.742Z,13.73
2018-06-13T01:02:47.701Z,13.64
2018-06-13T01:03:56.560Z,13.57
2018-06-13T01:05:05.427Z,13.46
2018-06-13T01:06:14.287Z,13.48
2018-06-13T01:07:23.146Z,13.55
2018-06-13T01:08:32.160Z,13.55
2018-06-13T01:09:41.023Z,13.63
2018-06-13T01:10:49.882Z,13.48
2018-06-13T01:11:58.746Z,13.63
2018-06-13T01:13:08.152Z,13.48
2018-06-13T01:14:17.010Z,13.69
2018-06-13T01:15:25.870Z,13.55
2018-06-13T01:16:35.008Z,13.55
2018-06-13T01:17:43.864Z,13.46
2018-06-13T01:18:53.280Z,13.57
2018-06-13T01:20:02.564Z,13.54
2018-06-13T01:21:11.697Z,13.55
2018-06-13T01:22:20.556Z,13.6
2018-06-13T01:23:29.418Z,13.48
2018-06-13T01:24:38.279Z,13.62
2018-06-13T01:25:47.137Z,13.59
2018-06-13T01:26:56.274Z,13.6
2018-06-13T01:28:05.134Z,13.6
2018-06-13T01:29:14.057Z,13.52
2018-06-13T01:30:22.856Z,13.51
2018-06-13T01:31:31.964Z,13.51
2018-06-13T01:32:40.823Z,13.69
2018-06-13T01:33:49.685Z,13.59
2018-06-13T01:34:58.543Z,13.67
2018-06-13T01:36:07.406Z,13.55
2018-06-13T01:37:16.315Z,13.39
2018-06-13T01:38:25.173Z,13.41
2018-06-13T01:39:34.307Z,13.41
2018-06-13T01:40:43.168Z,13.46
2018-06-13T01:41:52.022Z,13.45
2018-06-13T01:43:01.030Z,13.39
2018-06-13T01:44:09.888Z,13.55
2018-06-13T01:45:18.747Z,13.46
2018-06-13T01:46:27.605Z,13.41
2018-06-13T01:47:36.468Z,13.39
2018-06-13T01:48:45.852Z,13.28
2018-06-13T01:49:54.712Z,13.25
2018-06-13T01:51:03.571Z,13.45
2018-06-13T01:52:12.434Z,13.42
2018-06-13T01:53:21.293Z,13.32
2018-06-13T01:54:30.954Z,13.32
2018-06-13T01:55:39.817Z,13.33
2018-06-13T01:56:48.675Z,13.29
2018-06-13T01:57:57.535Z,13.28
2018-06-13T01:59:06.393Z,13.26
2018-06-13T02:00:15.404Z,13.3
2018-06-13T02:01:24.820Z,13.3
2018-06-13T02:02:33.678Z,13.26
2018-06-13T02:03:42.537Z,13.38
2018-06-13T02:04:51.674Z,13.32
2018-06-13T02:06:00.883Z,13.3
2018-06-13T02:07:09.742Z,13.36
2018-06-13T02:08:19.154Z,13.29
2018-06-13T02:09:28.013Z,13.32
2018-06-13T02:10:36.873Z,13.32
2018-06-13T02:11:45.728Z,13.23
2018-06-13T02:12:54.587Z,13.33
2018-06-13T02:14:03.446Z,13.38
2018-06-13T02:15:12.310Z,13.32
2018-06-13T02:16:21.443Z,13.3
2018-06-13T02:17:30.456Z,13.32
2018-06-13T02:18:39.591Z,13.39
2018-06-13T02:19:48.450Z,13.32
2018-06-13T02:20:57.583Z,13.32
2018-06-13T02:22:06.449Z,13.38
2018-06-13T02:23:15.588Z,13.42
2018-06-13T02:24:24.446Z,13.28
2018-06-13T02:25:33.307Z,13.51
2018-06-13T02:26:42.446Z,13.36
2018-06-13T02:27:51.580Z,13.52
2018-06-13T02:29:00.489Z,13.48
2018-06-13T02:30:09.632Z,13.48
2018-06-13T02:31:19.064Z,13.36
2018-06-13T02:32:28.199Z,13.51
2018-06-13T02:33:37.065Z,13.48
2018-06-13T02:34:46.815Z,13.51
2018-06-13T02:35:55.682Z,13.51
2018-06-13T02:37:04.538Z,13.41
2018-06-13T02:38:13.399Z,13.38
2018-06-13T02:39:22.534Z,13.3
2018-06-13T02:40:31.724Z,13.49
2018-06-13T02:41:41.138Z,13.32
2018-06-13T02:42:50.273Z,13.3
2018-06-13T02:43:59.413Z,13.39
2018-06-13T02:45:08.558Z,13.49
2018-06-13T02:46:18.047Z,13.62
2018-06-13T02:47:27.466Z,13.48
2018-06-13T02:48:36.605Z,13.48
2018-06-13T02:49:45.465Z,13.49
2018-06-13T02:50:54.337Z,13.51
2018-06-13T02:52:03.473Z,13.51
2018-06-13T02:53:12.883Z,13.54
2018-06-13T02:54:22.027Z,13.41
2018-06-13T02:55:31.446Z,13.48
2018-06-13T02:56:40.308Z,13.46
2018-06-13T02:57:49.279Z,13.48
2018-06-13T02:58:58.985Z,13.32
2018-06-13T03:00:08.411Z,13.44
2018-06-13T03:01:17.537Z,13.51
2018-06-13T03:02:26.674Z,13.44
2018-06-13T03:03:36.093Z,13.45
2018-06-13T03:04:45.228Z,13.49
2018-06-13T03:05:54.095Z,13.41
2018-06-13T03:07:03.510Z,13.48
2018-06-13T03:08:12.931Z,13.6
2018-06-13T03:09:22.219Z,13.46
2018-06-13T03:10:31.633Z,13.52
2018-06-13T03:11:40.779Z,13.52
2018-06-13T03:12:49.639Z,13.55
2018-06-13T03:13:58.779Z,13.46
2018-06-13T03:15:07.971Z,13.48
2018-06-13T03:16:17.105Z,13.51
2018-06-13T03:17:26.788Z,13.51
2018-06-13T03:18:35.649Z,13.59
2018-06-13T03:19:44.508Z,13.59
2018-06-13T03:20:53.538Z,13.51
2018-06-13T03:22:03.269Z,13.45
2018-06-13T03:23:12.130Z,13.54
2018-06-13T03:24:20.984Z,13.51
2018-06-13T03:25:29.844Z,13.54
2018-06-13T03:26:39.357Z,13.41
2018-06-13T03:27:48.215Z,13.41
2018-06-13T03:28:57.358Z,13.49
2018-06-13T03:30:06.228Z,13.48
2018-06-13T03:31:15.648Z,13.54
2018-06-13T03:32:24.781Z,13.64
2018-06-13T03:33:33.642Z,13.57
2018-06-13T03:34:42.501Z,13.52
2018-06-13T03:35:51.636Z,13.77
2018-06-13T03:37:00.495Z,13.7
2018-06-13T03:38:09.603Z,13.64
2018-06-13T03:39:18.462Z,13.66
2018-06-13T03:40:27.326Z,13.63
2018-06-13T03:41:36.189Z,13.57
2018-06-13T03:42:45.601Z,13.55
2018-06-13T03:43:54.611Z,13.54
2018-06-13T03:45:04.310Z,13.52
2018-06-13T03:46:13.167Z,13.51
2018-06-13T03:47:22.026Z,13.48
2018-06-13T03:48:31.164Z,13.51
2018-06-13T03:49:40.473Z,13.49
2018-06-13T03:50:49.644Z,13.45
2018-06-13T03:51:58.481Z,13.59
2018-06-13T03:53:07.341Z,13.55
2018-06-13T03:54:16.477Z,13.89
2018-06-13T03:55:25.659Z,13.97
2018-06-13T03:56:34.517Z,13.82
2018-06-13T03:57:43.945Z,13.75
2018-06-13T03:58:52.802Z,13.67
2018-06-13T04:00:01.938Z,13.67
2018-06-13T04:01:11.147Z,13.6
2018-06-13T04:02:20.013Z,13.67
2018-06-13T04:03:29.148Z,13.66
2018-06-13T04:04:38.010Z,13.63
2018-06-13T04:05:46.869Z,13.75
2018-06-13T04:06:55.727Z,13.78
2018-06-13T04:08:04.862Z,13.73
2018-06-13T04:09:14.003Z,13.73
2018-06-13T04:10:22.865Z,13.79
2018-06-13T04:11:32.000Z,13.81
2018-06-13T04:12:40.857Z,13.84
2018-06-13T04:13:50.137Z,13.79
2018-06-13T04:14:59.272Z,13.75
2018-06-13T04:16:08.132Z,13.73
2018-06-13T04:17:16.993Z,13.79
2018-06-13T04:18:26.005Z,13.77
2018-06-13T04:19:35.140Z,13.88
2018-06-13T04:20:44.001Z,13.77
2018-06-13T04:21:52.869Z,13.78
2018-06-13T04:23:01.727Z,13.87
2018-06-13T04:24:11.140Z,13.96
2018-06-13T04:25:19.999Z,14.06
2018-06-13T04:26:28.860Z,13.99
2018-06-13T04:27:38.282Z,14.02
2018-06-13T04:28:47.139Z,13.97
2018-06-13T04:29:56.272Z,14.14
2018-06-13T04:31:05.132Z,14.12
2018-06-13T04:32:13.993Z,13.95
2018-06-13T04:33:22.855Z,14.27
2018-06-13T04:34:31.714Z,14.5
2018-06-13T04:35:40.737Z,14.18
2018-06-13T04:36:49.873Z,14.24
2018-06-13T04:37:58.736Z,14.21
2018-06-13T04:39:07.595Z,14.12
2018-06-13T04:40:16.454Z,14.18
2018-06-13T04:41:25.364Z,14.07
2018-06-13T04:42:34.225Z,14.09
2018-06-13T04:43:43.090Z,14.15
2018-06-13T04:44:52.229Z,14.17
2018-06-13T04:46:01.241Z,14.2
2018-06-13T04:47:10.120Z,14.21
2018-06-13T04:48:19.257Z,14.17
2018-06-13T04:49:28.116Z,14.36
2018-06-13T04:50:36.977Z,14.32
2018-06-13T04:51:45.837Z,14.29
2018-06-13T04:52:54.976Z,14.36
2018-06-13T04:54:03.836Z,14.32
2018-06-13T04:55:12.974Z,14.21
2018-06-13T04:56:22.114Z,14.33
2018-06-13T04:57:30.976Z,14.4
2018-06-13T04:58:39.836Z,14.45
2018-06-13T04:59:48.698Z,14.5
2018-06-13T05:00:57.557Z,14.54
2018-06-13T05:02:06.416Z,14.52
2018-06-13T05:03:15.564Z,14.57
2018-06-13T05:04:24.425Z,14.47
2018-06-13T05:05:33.284Z,14.52
2018-06-13T05:06:42.421Z,14.58
2018-06-13T05:07:51.294Z,14.51
2018-06-13T05:09:00.839Z,14.46
2018-06-13T05:10:10.305Z,14.69
2018-06-13T05:11:20.312Z,14.83
2018-06-13T05:12:30.378Z,14.54
2018-06-13T05:13:39.967Z,14.54
2018-06-13T05:14:49.820Z,14.52
2018-06-13T05:15:59.670Z,14.61
2018-06-13T05:17:09.150Z,14.51
2018-06-13T05:18:18.658Z,14.54
2018-06-13T05:19:27.795Z,14.42
2018-06-13T05:20:36.936Z,14.52
2018-06-13T05:21:46.357Z,14.22
2018-06-13T05:22:55.219Z,14.18
2018-06-13T05:24:04.077Z,14.35
2018-06-13T05:25:12.939Z,14.14
2018-06-13T05:26:21.796Z,14.07
2018-06-13T05:27:31.211Z,14.03
2018-06-13T05:28:40.371Z,14.07
2018-06-13T05:29:49.567Z,13.99
2018-06-13T05:30:58.426Z,13.97
2018-06-13T05:32:07.289Z,14.14
2018-06-13T05:33:16.148Z,14.22
2018-06-13T05:34:25.209Z,14.18
2018-06-13T05:35:34.436Z,14.12
2018-06-13T05:36:43.298Z,13.96
2018-06-13T05:37:52.158Z,13.99
2018-06-13T05:39:01.294Z,14.02
2018-06-13T05:40:10.254Z,13.99
2018-06-13T05:41:19.113Z,14.09
2018-06-13T05:42:27.974Z,14.06
2018-06-13T05:43:36.903Z,13.97
2018-06-13T05:44:45.763Z,14.04
2018-06-13T05:45:54.723Z,14.18
2018-06-13T05:47:03.586Z,14.17
2018-06-13T05:48:12.448Z,14.21
2018-06-13T05:49:21.313Z,14.27
2018-06-13T05:50:30.174Z,14.27
2018-06-13T05:51:39.192Z,14.24
2018-06-13T05:52:48.054Z,14.36
2018-06-13T05:53:56.912Z,14.25
2018-06-13T05:55:05.773Z,14.32
2018-06-13T05:56:14.633Z,14.39
2018-06-13T05:57:23.494Z,14.28
2018-06-13T05:58:32.355Z,14.39
2018-06-13T05:59:41.213Z,14.43
2018-06-13T06:00:50.076Z,14.55
2018-06-13T06:01:58.936Z,14.51
2018-06-13T06:03:08.440Z,14.58
2018-06-13T06:04:17.297Z,14.55
2018-06-13T06:05:26.160Z,14.54
2018-06-13T06:06:35.299Z,14.55
2018-06-13T06:07:44.157Z,14.51
2018-06-13T06:08:53.647Z,14.64
2018-06-13T06:10:02.505Z,14.7
2018-06-13T06:11:11.368Z,14.7
2018-06-13T06:12:20.228Z,14.7
2018-06-13T06:13:29.089Z,14.64
2018-06-13T06:14:38.104Z,14.75
2018-06-13T06:15:46.966Z,14.77
2018-06-13T06:16:56.101Z,14.73
2018-06-13T06:18:05.242Z,14.7
2018-06-13T06:19:14.389Z,14.94
2018-06-13T06:20:23.702Z,14.83
2018-06-13T06:21:32.565Z,14.6
2018-06-13T06:22:41.427Z,14.65
2018-06-13T06:23:50.286Z,14.72
2018-06-13T06:24:59.427Z,14.68
2018-06-13T06:26:08.824Z,14.77
2018-06-13T06:27:17.688Z,14.69
2018-06-13T06:28:26.554Z,14.55
2018-06-13T06:29:35.411Z,14.75
2018-06-13T06:30:44.557Z,14.55
2018-06-13T06:31:53.469Z,14.52
2018-06-13T06:33:02.603Z,14.51
2018-06-13T06:34:11.465Z,14.52
2018-06-13T06:35:20.328Z,14.55
2018-06-13T06:36:29.188Z,14.61
2018-06-13T06:37:38.200Z,14.57
2018-06-13T06:38:47.061Z,14.47
2018-06-13T06:39:55.921Z,14.57
2018-06-13T06:41:04.780Z,14.52
2018-06-13T06:42:14.022Z,14.61
2018-06-13T06:43:22.874Z,14.6
2018-06-13T06:44:31.733Z,14.7
2018-06-13T06:45:40.596Z,14.73
2018-06-13T06:46:49.455Z,14.57
2018-06-13T06:47:58.632Z,14.54
2018-06-13T06:49:07.870Z,14.47
2018-06-13T06:50:17.020Z,14.58
2018-06-13T06:51:26.163Z,14.47
2018-06-13T06:52:35.024Z,14.5
2018-06-13T06:53:44.166Z,14.69
2018-06-13T06:54:53.280Z,14.8
2018-06-13T06:56:02.147Z,14.75
2018-06-13T06:57:11.342Z,14.75
2018-06-13T06:58:20.164Z,14.5
2018-06-13T06:59:29.028Z,14.46
2018-06-13T07:00:38.035Z,14.55
2018-06-13T07:01:46.899Z,14.51
2018-06-13T07:02:55.757Z,14.46
2018-06-13T07:04:04.620Z,14.25
2018-06-13T07:05:13.478Z,14.27
2018-06-13T07:06:22.541Z,14.2
2018-06-13T07:07:31.958Z,14.39
2018-06-13T07:08:40.819Z,14.18
2018-06-13T07:09:49.676Z,14.28
2018-06-13T07:10:58.538Z,14.22
2018-06-13T07:12:08.033Z,14.12
2018-06-13T07:13:17.198Z,14.14
2018-06-13T07:14:26.039Z,13.89
2018-06-13T07:15:34.898Z,13.95
2018-06-13T07:16:44.038Z,14.12
2018-06-13T07:17:53.281Z,14.04
2018-06-13T07:19:02.206Z,14.14
2018-06-13T07:20:11.001Z,14.09
2018-06-13T07:21:19.864Z,13.89
2018-06-13T07:22:28.726Z,13.85
2018-06-13T07:23:37.637Z,13.84
2018-06-13T07:24:46.824Z,13.92
2018-06-13T07:25:55.638Z,13.82
2018-06-13T07:27:04.500Z,13.91
2018-06-13T07:28:13.361Z,13.84
2018-06-13T07:29:22.373Z,14
2018-06-13T07:30:31.236Z,14.07
2018-06-13T07:31:40.374Z,14.15
2018-06-13T07:32:49.512Z,14.03
2018-06-13T07:33:58.372Z,14.14
2018-06-13T07:35:07.334Z,14.22
2018-06-13T07:36:16.194Z,14.33
2018-06-13T07:37:25.614Z,14.33
2018-06-13T07:38:34.474Z,14.29
2018-06-13T07:39:43.335Z,14.32
2018-06-13T07:40:52.850Z,14.37
2018-06-13T07:42:01.989Z,14.35
2018-06-13T07:43:10.851Z,14.46
2018-06-13T07:44:19.712Z,14.47
2018-06-13T07:45:28.576Z,14.61
2018-06-13T07:46:37.786Z,14.52
2018-06-13T07:47:46.654Z,14.57
2018-06-13T07:48:55.515Z,14.52
2018-06-13T07:50:04.673Z,14.6
2018-06-13T07:51:13.814Z,14.62
2018-06-13T07:52:22.775Z,14.57
2018-06-13T07:53:31.921Z,14.57
2018-06-13T07:54:40.780Z,14.65
2018-06-13T07:55:49.643Z,14.91
2018-06-13T07:56:58.503Z,14.75
2018-06-13T07:58:07.716Z,14.86
2018-06-13T07:59:16.577Z,14.96
2018-06-13T08:00:25.447Z,14.91
2018-06-13T08:01:34.616Z,14.98
2018-06-13T08:02:43.455Z,15.16
2018-06-13T08:03:52.667Z,15.27
2018-06-13T08:05:01.531Z,15.25
2018-06-13T08:06:10.671Z,15.17
2018-06-13T08:07:19.534Z,15.21
2018-06-13T08:08:28.458Z,15.25
2018-06-13T08:09:37.903Z,15.32
2018-06-13T08:10:47.045Z,15.27
2018-06-13T08:11:55.908Z,15.2
2018-06-13T08:13:04.768Z,15.31
2018-06-13T08:14:13.630Z,15.31
2018-06-13T08:15:22.592Z,15.43
2018-06-13T08:16:31.734Z,15.54
2018-06-13T08:17:40.592Z,15.6
2018-06-13T08:18:49.457Z,15.5
2018-06-13T08:19:58.594Z,15.54
2018-06-13T08:21:07.560Z,15.54
2018-06-13T08:22:16.419Z,15.67
2018-06-13T08:23:25.281Z,15.62
2018-06-13T08:24:34.149Z,15.67
2018-06-13T08:25:43.005Z,15.74
2018-06-13T08:26:51.967Z,15.71
2018-06-13T08:28:01.110Z,15.76
2018-06-13T08:29:09.974Z,15.83
2018-06-13T08:30:18.836Z,15.86
2018-06-13T08:31:27.700Z,15.87
2018-06-13T08:32:36.712Z,15.93
2018-06-13T08:33:46.176Z,15.86
2018-06-13T08:34:55.390Z,15.92
2018-06-13T08:36:04.252Z,15.97
2018-06-13T08:37:13.116Z,15.97
2018-06-13T08:38:22.030Z,16.05
2018-06-13T08:39:31.172Z,16.2
2018-06-13T08:40:40.038Z,16.21
2018-06-13T08:41:49.179Z,16.28
2018-06-13T08:42:58.038Z,16.34
2018-06-13T08:44:07.051Z,16.33
2018-06-13T08:45:15.915Z,16.33
2018-06-13T08:46:24.776Z,16.28
2018-06-13T08:47:33.923Z,16.31
2018-06-13T08:48:43.305Z,16.35
2018-06-13T08:49:52.467Z,16.42
2018-06-13T08:51:01.606Z,16.48
2018-06-13T08:52:10.744Z,16.45
2018-06-13T08:53:19.886Z,16.45
2018-06-13T08:54:28.748Z,16.48
2018-06-13T08:55:37.729Z,16.56
2018-06-13T08:56:46.929Z,16.68
2018-06-13T08:57:55.790Z,16.68
2018-06-13T08:59:04.648Z,16.75
2018-06-13T09:00:13.509Z,16.83
2018-06-13T09:01:22.427Z,16.93
2018-06-13T09:02:31.292Z,16.89
2018-06-13T09:03:40.433Z,16.96
2018-06-13T09:04:49.296Z,16.97
2018-06-13T09:05:58.162Z,16.93
2018-06-13T09:07:07.176Z,16.91
2018-06-13T09:08:16.315Z,16.93
2018-06-13T09:09:25.459Z,16.91
2018-06-13T09:10:34.335Z,17.03
2018-06-13T09:11:43.203Z,16.93
2018-06-13T09:12:52.680Z,16.94
2018-06-13T09:14:01.543Z,17
2018-06-13T09:15:10.406Z,17.03
2018-06-13T09:16:19.269Z,17.18
2018-06-13T09:17:28.134Z,17.07
2018-06-13T09:18:37.275Z,17.08
2018-06-13T09:19:46.140Z,17.03
2018-06-13T09:20:55.000Z,17.11
2018-06-13T09:22:04.415Z,17
2018-06-13T09:23:13.553Z,17.16
2018-06-13T09:24:22.416Z,17.15
2018-06-13T09:25:31.279Z,17.15
2018-06-13T09:26:40.144Z,17.08
2018-06-13T09:27:49.574Z,17.15
2018-06-13T09:28:58.438Z,17.04
2018-06-13T09:30:07.553Z,17.12
2018-06-13T09:31:16.790Z,17.14
2018-06-13T09:32:25.983Z,17.16
2018-06-13T09:33:35.129Z,17.18
2018-06-13T09:34:44.268Z,17.19
2018-06-13T09:35:53.387Z,17.21
2018-06-13T09:37:02.251Z,17.25
2018-06-13T09:38:11.118Z,17.26
2018-06-13T09:39:19.982Z,17.31
2018-06-13T09:40:28.846Z,17.36
2018-06-13T09:41:38.010Z,17.31
2018-06-13T09:42:46.828Z,17.33
2018-06-13T09:43:55.697Z,17.37
2018-06-13T09:45:04.558Z,17.37
2018-06-13T09:46:13.426Z,17.43
2018-06-13T09:47:28.363Z,17.4
2018-06-13T09:48:37.223Z,17.26
2018-06-13T09:49:46.085Z,17.19
2018-06-13T09:50:54.951Z,17.16
2018-06-13T09:52:03.811Z,17.19
2018-06-13T09:53:12.924Z,17.19
2018-06-13T09:54:21.787Z,17.15
2018-06-13T09:55:30.659Z,17.08
2018-06-13T09:56:39.516Z,17.19
2018-06-13T09:57:48.377Z,17.26
2018-06-13T09:58:57.391Z,17.28
2018-06-13T10:00:06.252Z,17.19
2018-06-13T10:01:15.116Z,17.19
2018-06-13T10:02:23.980Z,17.19
2018-06-13T10:03:32.844Z,17.3
2018-06-13T10:04:42.246Z,17.15
2018-06-13T10:05:51.066Z,17.19
2018-06-13T10:06:59.928Z,17.08
2018-06-13T10:08:08.793Z,17.18
2018-06-13T10:09:17.932Z,17.03
2018-06-13T10:10:26.802Z,17.07
2018-06-13T10:11:35.663Z,17.07
2018-06-13T10:12:44.524Z,17.08
2018-06-13T10:13:53.668Z,17.01
2018-06-13T10:15:02.532Z,17.08
2018-06-13T10:16:11.395Z,17.06
2018-06-13T10:17:20.257Z,17.08
2018-06-13T10:18:29.124Z,16.91
2018-06-13T10:19:37.988Z,16.97
2018-06-13T10:20:47.132Z,16.91
2018-06-13T10:21:56.095Z,17.01
2018-06-13T10:23:05.514Z,16.91
2018-06-13T10:24:14.669Z,16.93
2018-06-13T10:25:23.550Z,16.94
2018-06-13T10:26:32.442Z,16.91
2018-06-13T10:27:41.357Z,16.89
2018-06-13T10:28:50.281Z,16.93
2018-06-13T10:29:59.406Z,16.94
2018-06-13T10:31:08.265Z,16.83
2018-06-13T10:32:17.407Z,16.97
2018-06-13T10:33:26.272Z,16.97
2018-06-13T10:34:35.137Z,16.93
2018-06-13T10:35:43.998Z,17.01
2018-06-13T10:36:52.861Z,17.12
2018-06-13T10:38:02.004Z,17.28
2018-06-13T10:39:10.909Z,17.33
2018-06-13T10:40:20.048Z,17.49
2018-06-13T10:41:28.910Z,17.58
2018-06-13T10:42:37.772Z,17.64
2018-06-13T10:43:46.916Z,17.59
2018-06-13T10:44:55.980Z,17.56
2018-06-13T10:46:05.117Z,17.51
2018-06-13T10:47:13.977Z,17.56
2018-06-13T10:48:22.845Z,17.64
2018-06-13T10:49:32.019Z,17.66
2018-06-13T10:50:40.932Z,17.66
2018-06-13T10:51:49.800Z,17.64
2018-06-13T10:52:58.664Z,17.75
2018-06-13T10:54:07.531Z,17.64
2018-06-13T10:55:16.390Z,17.66
2018-06-13T10:56:25.305Z,17.46
2018-06-13T10:57:34.170Z,17.54
2018-06-13T10:58:43.033Z,17.54
2018-06-13T10:59:51.894Z,17.44
2018-06-13T11:01:00.757Z,17.49
2018-06-13T11:02:09.725Z,17.62
2018-06-13T11:03:18.588Z,17.63
2018-06-13T11:04:27.457Z,17.66
2018-06-13T11:05:36.313Z,17.64
2018-06-13T11:06:45.177Z,17.64
2018-06-13T11:07:54.370Z,17.7
2018-06-13T11:09:03.510Z,17.68
2018-06-13T11:10:12.375Z,17.66
2018-06-13T11:11:21.241Z,17.75
2018-06-13T11:12:30.104Z,17.63
2018-06-13T11:13:39.018Z,17.58
2018-06-13T11:14:47.881Z,17.54
2018-06-13T11:15:56.745Z,17.4
2018-06-13T11:17:05.910Z,17.3
2018-06-13T11:18:14.772Z,17.34
2018-06-13T11:19:23.788Z,17.36
2018-06-13T11:20:33.042Z,17.19
2018-06-13T11:21:41.905Z,17.26
2018-06-13T11:22:50.767Z,17.48
2018-06-13T11:23:59.906Z,17.43
2018-06-13T11:25:09.435Z,17.49
2018-06-13T11:26:18.294Z,17.46
2018-06-13T11:27:27.441Z,17.52
2018-06-13T11:28:36.306Z,17.58
2018-06-13T11:29:45.168Z,17.55
2018-06-13T11:30:54.182Z,17.54
2018-06-13T11:32:03.044Z,17.52
2018-06-13T11:33:11.909Z,17.62
2018-06-13T11:34:21.049Z,17.58
2018-06-13T11:35:29.912Z,17.49
2018-06-13T11:36:38.975Z,17.38
2018-06-13T11:37:47.841Z,17.31
2018-06-13T11:38:56.711Z,17.23
2018-06-13T11:40:05.575Z,17.28
2018-06-13T11:41:14.769Z,17.26
2018-06-13T11:42:23.985Z,17.34
2018-06-13T11:43:32.882Z,17.31
2018-06-13T11:44:41.996Z,17.43
2018-06-13T11:45:50.859Z,17.46
2018-06-13T11:46:59.960Z,17.48
2018-06-13T11:48:09.356Z,17.48
2018-06-13T11:49:18.246Z,17.46
2018-06-13T11:50:27.277Z,17.34
2018-06-13T11:51:36.384Z,17.31
2018-06-13T11:52:45.251Z,17.36
2018-06-13T11:53:54.261Z,17.36
2018-06-13T11:55:03.130Z,17.55
2018-06-13T11:56:12.273Z,17.54
2018-06-13T11:57:21.136Z,17.64
2018-06-13T11:58:29.996Z,17.71
2018-06-13T11:59:38.959Z,17.72
2018-06-13T12:00:47.824Z,17.78
2018-06-13T12:01:56.697Z,17.92
2018-06-13T12:03:05.563Z,17.93
2018-06-13T12:04:14.507Z,17.89
2018-06-13T12:05:23.390Z,17.95
2018-06-13T12:06:32.253Z,17.89
2018-06-13T12:07:41.120Z,17.92
2018-06-13T12:08:50.094Z,17.87
2018-06-13T12:09:58.958Z,17.92
2018-06-13T12:11:08.104Z,17.92
2018-06-13T12:12:16.970Z,17.78
2018-06-13T12:13:25.833Z,17.77
2018-06-13T12:14:34.696Z,17.74
2018-06-13T12:15:43.560Z,17.72
2018-06-13T12:16:52.424Z,17.78
2018-06-13T12:18:01.286Z,17.66
2018-06-13T12:19:10.151Z,17.66
2018-06-13T12:20:19.015Z,17.64
2018-06-13T12:21:27.881Z,17.56
2018-06-13T12:22:36.801Z,17.52
2018-06-13T12:23:46.181Z,17.71
2018-06-13T12:24:55.093Z,17.56
2018-06-13T12:26:04.235Z,17.66
2018-06-13T12:27:13.096Z,17.49
2018-06-13T12:28:21.963Z,17.62
2018-06-13T12:29:31.116Z,17.63
2018-06-13T12:30:40.409Z,17.64
2018-06-13T12:31:49.276Z,17.58
2018-06-13T12:32:58.134Z,17.58
2018-06-13T12:34:06.995Z,17.56
2018-06-13T12:35:16.482Z,17.58
2018-06-13T12:36:25.595Z,17.64
2018-06-13T12:37:35.016Z,17.71
2018-06-13T12:38:44.155Z,17.77
2018-06-13T12:39:53.019Z,17.77
2018-06-13T12:41:01.881Z,17.78
2018-06-13T12:42:10.743Z,17.78
2018-06-13T12:43:19.897Z,17.75
2018-06-13T12:44:28.761Z,17.79
2018-06-13T12:45:38.040Z,17.79
2018-06-13T12:46:47.147Z,17.95
2018-06-13T12:47:56.066Z,17.89
2018-06-13T12:49:05.485Z,18.14
2018-06-13T12:50:14.354Z,18.17
2018-06-13T12:51:23.220Z,18.12
2018-06-13T12:52:32.085Z,18.2
2018-06-13T12:53:41.301Z,18.32
2018-06-13T12:54:50.165Z,18.33
2018-06-13T12:55:59.029Z,18.29
2018-06-13T12:57:08.174Z,18.51
2018-06-13T12:58:17.040Z,18.67
2018-06-13T12:59:25.911Z,18.85
2018-06-13T13:00:35.332Z,18.92
2018-06-13T13:01:44.201Z,19.1
2018-06-13T13:02:53.067Z,19.26
2018-06-13T13:04:01.935Z,19.33
2018-06-13T13:05:10.803Z,19.44
2018-06-13T13:06:19.669Z,19.5
2018-06-13T13:07:28.814Z,19.68
2018-06-13T13:08:37.680Z,19.76
2018-06-13T13:09:46.549Z,19.98
2018-06-13T13:10:55.625Z,20.1
2018-06-13T13:12:05.446Z,20.2
2018-06-13T13:13:14.709Z,20.11
2018-06-13T13:14:23.583Z,19.74
2018-06-13T13:15:32.446Z,19.69
2018-06-13T13:16:41.470Z,19.62
2018-06-13T13:17:50.393Z,19.54
2018-06-13T13:18:59.482Z,19.4
2018-06-13T13:20:08.702Z,19.46
2018-06-13T13:21:17.849Z,19.31
2018-06-13T13:22:26.819Z,19.14
2018-06-13T13:23:35.687Z,19.21
2018-06-13T13:24:44.829Z,19.14
2018-06-13T13:25:53.694Z,19.08
2018-06-13T13:27:02.846Z,19.1
2018-06-13T13:28:11.859Z,19.07
2018-06-13T13:29:21.007Z,19.07
2018-06-13T13:30:29.871Z,19.04
2018-06-13T13:31:38.735Z,19.04
2018-06-13T13:32:47.605Z,19.07
2018-06-13T13:33:56.826Z,18.92
2018-06-13T13:35:05.968Z,19.02
2018-06-13T13:36:14.832Z,19.06
2018-06-13T13:37:23.694Z,19.08
2018-06-13T13:38:32.561Z,19.07
2018-06-13T13:39:41.853Z,19.19
2018-06-13T13:40:50.719Z,19.22
2018-06-13T13:41:59.593Z,19.21
2018-06-13T13:43:08.459Z,19.32
2018-06-13T13:44:17.340Z,19.41
2018-06-13T13:45:28.141Z,19.61
2018-06-13T13:46:38.123Z,19.63
2018-06-13T13:47:46.989Z,19.65
2018-06-13T13:48:55.856Z,19.73
2018-06-13T13:50:04.724Z,19.59
2018-06-13T13:51:13.662Z,19.41
2018-06-13T13:52:22.532Z,19.46
2018-06-13T13:53:31.397Z,19.31
2018-06-13T13:54:40.840Z,19.36
2018-06-13T13:55:49.707Z,19.23
2018-06-13T13:56:58.673Z,19.23
2018-06-13T13:58:07.549Z,19.04
2018-06-13T13:59:16.418Z,19.11
2018-06-13T14:00:25.287Z,19.08
2018-06-13T14:01:34.159Z,19.04
2018-06-13T14:02:43.026Z,18.92
2018-06-13T14:03:52.092Z,18.94
2018-06-13T14:05:01.288Z,18.94
2018-06-13T14:06:10.479Z,18.81
2018-06-13T14:07:19.349Z,18.75
2018-06-13T14:08:28.215Z,18.67
2018-06-13T14:09:37.083Z,18.69
2018-06-13T14:10:46.230Z,18.69
2018-06-13T14:11:55.396Z,18.7
2018-06-13T14:13:04.263Z,18.82
2018-06-13T14:14:13.125Z,18.9
2018-06-13T14:15:21.987Z,18.95
2018-06-13T14:16:30.855Z,18.94
2018-06-13T14:17:39.720Z,18.95
2018-06-13T14:18:48.586Z,19.16
2018-06-13T14:19:57.727Z,19.51
2018-06-13T14:21:06.592Z,19.8
2018-06-13T14:22:15.992Z,20.08
2018-06-13T14:23:25.044Z,20.33
2018-06-13T14:24:33.909Z,20.31
2018-06-13T14:25:42.779Z,20.66
2018-06-13T14:26:51.647Z,20.8
2018-06-13T14:28:00.951Z,20.95
2018-06-13T14:29:09.829Z,21.07
2018-06-13T14:30:18.701Z,21.34
2018-06-13T14:31:27.858Z,21.37
2018-06-13T14:32:36.732Z,21.68
2018-06-13T14:33:45.757Z,21.52
2018-06-13T14:34:54.630Z,21.5
2018-06-13T14:36:03.502Z,21.59
2018-06-13T14:37:12.389Z,21.47
2018-06-13T14:38:21.249Z,21.65
2018-06-13T14:39:30.122Z,21.84
2018-06-13T14:40:39.561Z,22.18
2018-06-13T14:41:48.435Z,22.31
2018-06-13T14:42:57.309Z,22.51
2018-06-13T14:44:06.181Z,22.31
2018-06-13T14:45:15.791Z,22.42
2018-06-13T14:46:24.665Z,22.73
2018-06-13T14:47:33.539Z,22.65
2018-06-13T14:48:42.414Z,22.47
2018-06-13T14:49:51.287Z,22.05
2018-06-13T14:51:00.668Z,22.05